sensor_id;sensor_type;location;lat;lon;timestamp;temperature;humidity
63202;DHT22;49296;48.188;11.566;2023-07-13T00:00:20;19.75;82.15
63202;DHT22;49296;48.188;11.566;2023-07-13T00:02:47;19.74;82.61
63202;DHT22;49296;48.188;11.566;2023-07-13T00:05:14;19.71;82.32
63202;DHT22;49296;48.188;11.566;2023-07-13T00:07:41;19.71;82.55
63202;DHT22;49296;48.188;11.566;2023-07-13T00:10:08;19.67;82.35
63202;DHT22;49296;48.188;11.566;2023-07-13T00:12:37;19.73;82.29
63202;DHT22;49296;48.188;11.566;2023-07-13T00:15:09;19.68;82.13
63202;DHT22;49296;48.188;11.566;2023-07-13T00:17:37;19.64;82.53
63202;DHT22;49296;48.188;11.566;2023-07-13T00:20:05;19.60;82.71
63202;DHT22;49296;48.188;11.566;2023-07-13T00:22:34;19.66;82.71
63202;DHT22;49296;48.188;11.566;2023-07-13T00:25:00;19.68;82.60
63202;DHT22;49296;48.188;11.566;2023-07-13T00:27:27;19.66;82.53
63202;DHT22;49296;48.188;11.566;2023-07-13T00:29:55;19.64;82.29
63202;DHT22;49296;48.188;11.566;2023-07-13T00:32:21;19.57;82.79
63202;DHT22;49296;48.188;11.566;2023-07-13T00:34:52;19.58;82.53
63202;DHT22;49296;48.188;11.566;2023-07-13T00:37:18;19.67;82.38
63202;DHT22;49296;48.188;11.566;2023-07-13T00:39:45;19.56;82.74
63202;DHT22;49296;48.188;11.566;2023-07-13T00:42:12;19.63;82.43
63202;DHT22;49296;48.188;11.566;2023-07-13T00:44:38;19.49;82.72
63202;DHT22;49296;48.188;11.566;2023-07-13T00:47:06;19.61;82.56
63202;DHT22;49296;48.188;11.566;2023-07-13T00:49:35;19.66;82.20
63202;DHT22;49296;48.188;11.566;2023-07-13T00:52:06;19.53;82.12
63202;DHT22;49296;48.188;11.566;2023-07-13T00:54:35;19.60;82.06
63202;DHT22;49296;48.188;11.566;2023-07-13T00:57:05;19.53;81.86
63202;DHT22;49296;48.188;11.566;2023-07-13T00:59:34;19.58;82.03
63202;DHT22;49296;48.188;11.566;2023-07-13T01:02:01;19.60;82.07
63202;DHT22;49296;48.188;11.566;2023-07-13T01:04:28;19.58;82.30
63202;DHT22;49296;48.188;11.566;2023-07-13T01:06:55;19.61;81.79
63202;DHT22;49296;48.188;11.566;2023-07-13T01:09:23;19.64;81.81
63202;DHT22;49296;48.188;11.566;2023-07-13T01:11:50;19.58;81.58
63202;DHT22;49296;48.188;11.566;2023-07-13T01:14:17;19.64;81.69
63202;DHT22;49296;48.188;11.566;2023-07-13T01:16:45;19.71;81.57
63202;DHT22;49296;48.188;11.566;2023-07-13T01:19:21;19.67;81.44
63202;DHT22;49296;48.188;11.566;2023-07-13T01:21:52;19.54;81.93
63202;DHT22;49296;48.188;11.566;2023-07-13T01:24:19;19.57;82.03
63202;DHT22;49296;48.188;11.566;2023-07-13T01:26:45;19.61;81.72
63202;DHT22;49296;48.188;11.566;2023-07-13T01:29:12;19.70;81.73
63202;DHT22;49296;48.188;11.566;2023-07-13T01:31:38;19.74;81.36
63202;DHT22;49296;48.188;11.566;2023-07-13T01:34:05;19.67;81.27
63202;DHT22;49296;48.188;11.566;2023-07-13T01:36:32;19.79;81.27
63202;DHT22;49296;48.188;11.566;2023-07-13T01:38:59;19.60;82.16
63202;DHT22;49296;48.188;11.566;2023-07-13T01:41:26;19.63;82.80
63202;DHT22;49296;48.188;11.566;2023-07-13T01:43:53;19.81;82.64
63202;DHT22;49296;48.188;11.566;2023-07-13T01:46:19;19.95;82.29
63202;DHT22;49296;48.188;11.566;2023-07-13T01:48:46;20.12;82.04
63202;DHT22;49296;48.188;11.566;2023-07-13T01:51:12;20.20;81.92
63202;DHT22;49296;48.188;11.566;2023-07-13T01:53:39;20.09;81.77
63202;DHT22;49296;48.188;11.566;2023-07-13T01:56:07;19.98;82.16
63202;DHT22;49296;48.188;11.566;2023-07-13T01:58:34;19.99;82.14
63202;DHT22;49296;48.188;11.566;2023-07-13T02:01:00;20.01;81.78
63202;DHT22;49296;48.188;11.566;2023-07-13T02:03:27;19.88;81.79
63202;DHT22;49296;48.188;11.566;2023-07-13T02:05:53;19.57;81.98
63202;DHT22;49296;48.188;11.566;2023-07-13T02:08:20;19.49;82.76
63202;DHT22;49296;48.188;11.566;2023-07-13T02:10:46;19.58;82.82
63202;DHT22;49296;48.188;11.566;2023-07-13T02:13:14;19.50;82.65
63202;DHT22;49296;48.188;11.566;2023-07-13T02:15:41;19.70;82.41
63202;DHT22;49296;48.188;11.566;2023-07-13T02:18:07;19.75;82.14
63202;DHT22;49296;48.188;11.566;2023-07-13T02:20:34;19.78;81.92
63202;DHT22;49296;48.188;11.566;2023-07-13T02:23:00;19.75;81.94
63202;DHT22;49296;48.188;11.566;2023-07-13T02:25:27;19.75;82.08
63202;DHT22;49296;48.188;11.566;2023-07-13T02:27:54;19.88;82.22
63202;DHT22;49296;48.188;11.566;2023-07-13T02:30:21;19.89;82.95
63202;DHT22;49296;48.188;11.566;2023-07-13T02:32:50;19.56;83.43
63202;DHT22;49296;48.188;11.566;2023-07-13T02:35:16;19.51;83.52
63202;DHT22;49296;48.188;11.566;2023-07-13T02:37:43;19.30;83.95
63202;DHT22;49296;48.188;11.566;2023-07-13T02:40:10;19.29;84.33
63202;DHT22;49296;48.188;11.566;2023-07-13T02:42:36;19.37;84.53
63202;DHT22;49296;48.188;11.566;2023-07-13T02:45:03;19.18;84.66
63202;DHT22;49296;48.188;11.566;2023-07-13T02:47:33;19.34;84.53
63202;DHT22;49296;48.188;11.566;2023-07-13T02:50:00;19.15;84.86
63202;DHT22;49296;48.188;11.566;2023-07-13T02:52:27;19.29;84.61
63202;DHT22;49296;48.188;11.566;2023-07-13T02:54:53;19.16;84.58
63202;DHT22;49296;48.188;11.566;2023-07-13T02:57:20;19.18;84.71
63202;DHT22;49296;48.188;11.566;2023-07-13T02:59:47;19.05;84.71
63202;DHT22;49296;48.188;11.566;2023-07-13T03:02:13;19.11;84.34
63202;DHT22;49296;48.188;11.566;2023-07-13T03:04:41;19.15;83.61
63202;DHT22;49296;48.188;11.566;2023-07-13T03:07:08;18.88;84.63
63202;DHT22;49296;48.188;11.566;2023-07-13T03:09:35;18.83;85.33
63202;DHT22;49296;48.188;11.566;2023-07-13T03:12:01;18.97;84.62
63202;DHT22;49296;48.188;11.566;2023-07-13T03:14:28;19.16;84.12
63202;DHT22;49296;48.188;11.566;2023-07-13T03:16:55;18.80;84.42
63202;DHT22;49296;48.188;11.566;2023-07-13T03:19:22;18.83;84.53
63202;DHT22;49296;48.188;11.566;2023-07-13T03:21:49;18.78;84.67
63202;DHT22;49296;48.188;11.566;2023-07-13T03:24:16;18.95;84.75
63202;DHT22;49296;48.188;11.566;2023-07-13T03:26:43;18.70;84.85
63202;DHT22;49296;48.188;11.566;2023-07-13T03:29:09;18.77;84.69
63202;DHT22;49296;48.188;11.566;2023-07-13T03:31:36;18.95;84.56
63202;DHT22;49296;48.188;11.566;2023-07-13T03:34:03;19.08;83.11
63202;DHT22;49296;48.188;11.566;2023-07-13T03:36:30;19.25;82.89
63202;DHT22;49296;48.188;11.566;2023-07-13T03:39:01;19.20;82.66
63202;DHT22;49296;48.188;11.566;2023-07-13T03:41:28;19.23;82.47
63202;DHT22;49296;48.188;11.566;2023-07-13T03:43:54;19.15;82.43
63202;DHT22;49296;48.188;11.566;2023-07-13T03:46:21;19.14;82.93
63202;DHT22;49296;48.188;11.566;2023-07-13T03:48:47;18.89;82.85
63202;DHT22;49296;48.188;11.566;2023-07-13T03:51:16;18.89;83.08
63202;DHT22;49296;48.188;11.566;2023-07-13T03:53:44;18.92;83.03
63202;DHT22;49296;48.188;11.566;2023-07-13T03:56:12;18.88;82.31
63202;DHT22;49296;48.188;11.566;2023-07-13T03:58:42;18.75;82.42
63202;DHT22;49296;48.188;11.566;2023-07-13T04:01:09;18.70;82.42
63202;DHT22;49296;48.188;11.566;2023-07-13T04:03:37;18.53;82.57
63202;DHT22;49296;48.188;11.566;2023-07-13T04:06:05;18.67;82.91
63202;DHT22;49296;48.188;11.566;2023-07-13T04:08:34;18.63;82.12
63202;DHT22;49296;48.188;11.566;2023-07-13T04:11:02;18.59;82.10
63202;DHT22;49296;48.188;11.566;2023-07-13T04:13:30;18.68;81.79
63202;DHT22;49296;48.188;11.566;2023-07-13T04:15:57;18.77;81.55
63202;DHT22;49296;48.188;11.566;2023-07-13T04:18:24;18.81;81.64
63202;DHT22;49296;48.188;11.566;2023-07-13T04:20:51;18.74;81.55
63202;DHT22;49296;48.188;11.566;2023-07-13T04:23:18;18.56;81.39
63202;DHT22;49296;48.188;11.566;2023-07-13T04:25:45;18.54;81.57
63202;DHT22;49296;48.188;11.566;2023-07-13T04:28:14;18.56;81.93
63202;DHT22;49296;48.188;11.566;2023-07-13T04:30:42;18.56;81.41
63202;DHT22;49296;48.188;11.566;2023-07-13T04:33:09;18.60;81.81
63202;DHT22;49296;48.188;11.566;2023-07-13T04:35:36;18.54;81.91
63202;DHT22;49296;48.188;11.566;2023-07-13T04:38:03;18.52;81.55
63202;DHT22;49296;48.188;11.566;2023-07-13T04:40:30;18.46;82.26
63202;DHT22;49296;48.188;11.566;2023-07-13T04:42:56;18.56;81.52
63202;DHT22;49296;48.188;11.566;2023-07-13T04:45:24;18.60;81.59
63202;DHT22;49296;48.188;11.566;2023-07-13T04:47:52;18.64;81.38
63202;DHT22;49296;48.188;11.566;2023-07-13T04:50:18;18.67;80.67
63202;DHT22;49296;48.188;11.566;2023-07-13T04:52:48;18.63;80.71
63202;DHT22;49296;48.188;11.566;2023-07-13T04:55:15;18.59;81.34
63202;DHT22;49296;48.188;11.566;2023-07-13T04:57:41;18.53;81.19
63202;DHT22;49296;48.188;11.566;2023-07-13T05:00:09;18.42;81.99
63202;DHT22;49296;48.188;11.566;2023-07-13T05:02:37;18.54;81.50
63202;DHT22;49296;48.188;11.566;2023-07-13T05:05:07;18.54;81.38
63202;DHT22;49296;48.188;11.566;2023-07-13T05:07:33;18.70;81.21
63202;DHT22;49296;48.188;11.566;2023-07-13T05:10:00;18.84;80.89
63202;DHT22;49296;48.188;11.566;2023-07-13T05:12:27;19.02;80.68
63202;DHT22;49296;48.188;11.566;2023-07-13T05:14:53;19.05;80.40
63202;DHT22;49296;48.188;11.566;2023-07-13T05:17:20;18.88;80.68
63202;DHT22;49296;48.188;11.566;2023-07-13T05:19:47;18.72;80.78
63202;DHT22;49296;48.188;11.566;2023-07-13T05:22:14;18.77;80.95
63202;DHT22;49296;48.188;11.566;2023-07-13T05:24:41;18.94;80.91
63202;DHT22;49296;48.188;11.566;2023-07-13T05:27:08;18.81;81.11
63202;DHT22;49296;48.188;11.566;2023-07-13T05:29:34;18.84;81.18
63202;DHT22;49296;48.188;11.566;2023-07-13T05:32:01;18.84;80.80
63202;DHT22;49296;48.188;11.566;2023-07-13T05:34:27;18.80;81.24
63202;DHT22;49296;48.188;11.566;2023-07-13T05:36:54;18.70;81.62
63202;DHT22;49296;48.188;11.566;2023-07-13T05:39:22;18.91;81.01
63202;DHT22;49296;48.188;11.566;2023-07-13T05:41:49;18.83;80.98
63202;DHT22;49296;48.188;11.566;2023-07-13T05:44:16;18.70;81.24
63202;DHT22;49296;48.188;11.566;2023-07-13T05:46:44;18.83;81.03
63202;DHT22;49296;48.188;11.566;2023-07-13T05:49:10;18.80;80.91
63202;DHT22;49296;48.188;11.566;2023-07-13T05:51:37;18.92;80.53
63202;DHT22;49296;48.188;11.566;2023-07-13T05:54:04;18.89;81.03
63202;DHT22;49296;48.188;11.566;2023-07-13T05:56:31;19.01;80.56
63202;DHT22;49296;48.188;11.566;2023-07-13T05:58:58;19.14;80.47
63202;DHT22;49296;48.188;11.566;2023-07-13T06:01:24;19.14;80.55
63202;DHT22;49296;48.188;11.566;2023-07-13T06:03:51;19.12;80.32
63202;DHT22;49296;48.188;11.566;2023-07-13T06:06:18;19.02;80.23
63202;DHT22;49296;48.188;11.566;2023-07-13T06:08:44;19.09;80.46
63202;DHT22;49296;48.188;11.566;2023-07-13T06:11:14;19.23;80.35
63202;DHT22;49296;48.188;11.566;2023-07-13T06:13:42;19.18;79.67
63202;DHT22;49296;48.188;11.566;2023-07-13T06:16:11;19.16;80.23
63202;DHT22;49296;48.188;11.566;2023-07-13T06:18:39;19.19;80.58
63202;DHT22;49296;48.188;11.566;2023-07-13T06:21:07;19.43;80.25
63202;DHT22;49296;48.188;11.566;2023-07-13T06:23:34;19.47;79.54
63202;DHT22;49296;48.188;11.566;2023-07-13T06:26:01;19.58;79.11
63202;DHT22;49296;48.188;11.566;2023-07-13T06:28:28;19.60;78.90
63202;DHT22;49296;48.188;11.566;2023-07-13T06:30:56;19.57;78.19
63202;DHT22;49296;48.188;11.566;2023-07-13T06:33:22;19.53;78.44
63202;DHT22;49296;48.188;11.566;2023-07-13T06:35:49;19.57;77.39
63202;DHT22;49296;48.188;11.566;2023-07-13T06:38:15;19.64;77.98
63202;DHT22;49296;48.188;11.566;2023-07-13T06:40:42;19.60;76.88
63202;DHT22;49296;48.188;11.566;2023-07-13T06:43:09;19.71;75.84
63202;DHT22;49296;48.188;11.566;2023-07-13T06:45:40;19.67;75.76
63202;DHT22;49296;48.188;11.566;2023-07-13T06:48:08;19.73;75.43
63202;DHT22;49296;48.188;11.566;2023-07-13T06:50:35;19.84;75.93
63202;DHT22;49296;48.188;11.566;2023-07-13T06:53:01;19.82;75.88
63202;DHT22;49296;48.188;11.566;2023-07-13T06:55:28;19.77;75.49
63202;DHT22;49296;48.188;11.566;2023-07-13T06:57:54;19.73;75.97
63202;DHT22;49296;48.188;11.566;2023-07-13T07:00:21;19.63;75.14
63202;DHT22;49296;48.188;11.566;2023-07-13T07:02:48;19.56;74.60
63202;DHT22;49296;48.188;11.566;2023-07-13T07:05:16;19.57;74.76
63202;DHT22;49296;48.188;11.566;2023-07-13T07:07:42;19.56;75.03
63202;DHT22;49296;48.188;11.566;2023-07-13T07:10:09;19.46;74.74
63202;DHT22;49296;48.188;11.566;2023-07-13T07:12:35;19.37;75.10
63202;DHT22;49296;48.188;11.566;2023-07-13T07:15:03;19.42;74.81
63202;DHT22;49296;48.188;11.566;2023-07-13T07:17:29;19.57;75.21
63202;DHT22;49296;48.188;11.566;2023-07-13T07:19:56;19.68;73.03
63202;DHT22;49296;48.188;11.566;2023-07-13T07:22:24;19.73;72.44
63202;DHT22;49296;48.188;11.566;2023-07-13T07:24:52;19.74;71.90
63202;DHT22;49296;48.188;11.566;2023-07-13T07:27:19;19.84;71.98
63202;DHT22;49296;48.188;11.566;2023-07-13T07:29:46;19.53;71.19
63202;DHT22;49296;48.188;11.566;2023-07-13T07:32:12;19.57;70.28
63202;DHT22;49296;48.188;11.566;2023-07-13T07:34:39;19.57;70.96
63202;DHT22;49296;48.188;11.566;2023-07-13T07:37:06;19.51;70.08
63202;DHT22;49296;48.188;11.566;2023-07-13T07:39:33;19.54;70.53
63202;DHT22;49296;48.188;11.566;2023-07-13T07:42:00;19.54;71.60
63202;DHT22;49296;48.188;11.566;2023-07-13T07:44:26;19.53;71.06
63202;DHT22;49296;48.188;11.566;2023-07-13T07:46:53;19.43;71.14
63202;DHT22;49296;48.188;11.566;2023-07-13T07:49:20;19.54;72.43
63202;DHT22;49296;48.188;11.566;2023-07-13T07:51:46;19.71;71.99
63202;DHT22;49296;48.188;11.566;2023-07-13T07:54:13;19.71;71.70
63202;DHT22;49296;48.188;11.566;2023-07-13T07:56:41;19.50;71.65
63202;DHT22;49296;48.188;11.566;2023-07-13T07:59:08;19.47;71.97
63202;DHT22;49296;48.188;11.566;2023-07-13T08:01:34;19.63;72.77
63202;DHT22;49296;48.188;11.566;2023-07-13T08:04:01;19.70;72.35
63202;DHT22;49296;48.188;11.566;2023-07-13T08:06:28;19.45;71.99
63202;DHT22;49296;48.188;11.566;2023-07-13T08:08:54;19.45;72.53
63202;DHT22;49296;48.188;11.566;2023-07-13T08:11:22;19.25;71.90
63202;DHT22;49296;48.188;11.566;2023-07-13T08:13:51;19.26;72.29
63202;DHT22;49296;48.188;11.566;2023-07-13T08:16:17;19.49;72.40
63202;DHT22;49296;48.188;11.566;2023-07-13T08:18:44;19.33;71.21
63202;DHT22;49296;48.188;11.566;2023-07-13T08:21:10;19.33;70.38
63202;DHT22;49296;48.188;11.566;2023-07-13T08:23:37;19.22;69.18
63202;DHT22;49296;48.188;11.566;2023-07-13T08:26:04;18.91;68.23
63202;DHT22;49296;48.188;11.566;2023-07-13T08:28:31;19.01;67.47
63202;DHT22;49296;48.188;11.566;2023-07-13T08:31:01;19.06;68.09
63202;DHT22;49296;48.188;11.566;2023-07-13T08:33:28;19.32;67.13
63202;DHT22;49296;48.188;11.566;2023-07-13T08:35:55;19.20;65.31
63202;DHT22;49296;48.188;11.566;2023-07-13T08:38:22;19.19;65.89
63202;DHT22;49296;48.188;11.566;2023-07-13T08:40:52;19.19;65.67
63202;DHT22;49296;48.188;11.566;2023-07-13T08:43:25;19.09;65.34
63202;DHT22;49296;48.188;11.566;2023-07-13T08:45:56;19.14;65.43
63202;DHT22;49296;48.188;11.566;2023-07-13T08:48:26;19.05;64.99
63202;DHT22;49296;48.188;11.566;2023-07-13T08:50:57;19.09;64.97
63202;DHT22;49296;48.188;11.566;2023-07-13T08:53:29;19.25;65.21
63202;DHT22;49296;48.188;11.566;2023-07-13T08:55:58;19.34;65.66
63202;DHT22;49296;48.188;11.566;2023-07-13T08:58:26;19.42;64.28
63202;DHT22;49296;48.188;11.566;2023-07-13T09:01:02;19.39;64.59
63202;DHT22;49296;48.188;11.566;2023-07-13T09:03:38;19.67;64.76
63202;DHT22;49296;48.188;11.566;2023-07-13T09:06:08;19.60;62.98
63202;DHT22;49296;48.188;11.566;2023-07-13T09:08:47;19.63;63.27
63202;DHT22;49296;48.188;11.566;2023-07-13T09:11:27;19.49;62.82
63202;DHT22;49296;48.188;11.566;2023-07-13T09:14:02;19.56;62.49
63202;DHT22;49296;48.188;11.566;2023-07-13T09:16:33;19.66;62.82
63202;DHT22;49296;48.188;11.566;2023-07-13T09:19:05;19.50;62.28
63202;DHT22;49296;48.188;11.566;2023-07-13T09:21:36;19.63;62.25
63202;DHT22;49296;48.188;11.566;2023-07-13T09:24:28;19.71;61.45
63202;DHT22;49296;48.188;11.566;2023-07-13T09:26:56;19.61;62.21
63202;DHT22;49296;48.188;11.566;2023-07-13T09:29:29;19.89;62.81
63202;DHT22;49296;48.188;11.566;2023-07-13T09:32:01;20.19;61.39
63202;DHT22;49296;48.188;11.566;2023-07-13T09:34:31;20.18;60.28
63202;DHT22;49296;48.188;11.566;2023-07-13T09:36:58;20.12;61.36
63202;DHT22;49296;48.188;11.566;2023-07-13T09:39:27;20.25;60.98
63202;DHT22;49296;48.188;11.566;2023-07-13T09:41:58;20.48;61.08
63202;DHT22;49296;48.188;11.566;2023-07-13T09:44:31;20.60;59.75
63202;DHT22;49296;48.188;11.566;2023-07-13T09:47:00;20.61;59.45
63202;DHT22;49296;48.188;11.566;2023-07-13T09:49:31;20.64;60.78
63202;DHT22;49296;48.188;11.566;2023-07-13T09:52:02;20.54;60.11
63202;DHT22;49296;48.188;11.566;2023-07-13T09:54:34;20.61;59.55
63202;DHT22;49296;48.188;11.566;2023-07-13T09:57:02;20.77;59.84
63202;DHT22;49296;48.188;11.566;2023-07-13T09:59:33;20.85;59.98
63202;DHT22;49296;48.188;11.566;2023-07-13T10:02:22;20.78;59.46
63202;DHT22;49296;48.188;11.566;2023-07-13T10:04:55;21.10;59.05
63202;DHT22;49296;48.188;11.566;2023-07-13T10:07:22;21.20;57.97
63202;DHT22;49296;48.188;11.566;2023-07-13T10:09:52;21.49;57.68
63202;DHT22;49296;48.188;11.566;2023-07-13T10:12:19;21.60;57.11
63202;DHT22;49296;48.188;11.566;2023-07-13T10:14:47;21.39;56.49
63202;DHT22;49296;48.188;11.566;2023-07-13T10:17:15;21.30;57.47
63202;DHT22;49296;48.188;11.566;2023-07-13T10:19:47;21.40;56.96
63202;DHT22;49296;48.188;11.566;2023-07-13T10:22:21;21.29;56.83
63202;DHT22;49296;48.188;11.566;2023-07-13T10:24:49;21.50;56.81
63202;DHT22;49296;48.188;11.566;2023-07-13T10:27:19;21.68;56.79
63202;DHT22;49296;48.188;11.566;2023-07-13T10:29:54;21.89;56.38
63202;DHT22;49296;48.188;11.566;2023-07-13T10:32:25;21.84;55.69
63202;DHT22;49296;48.188;11.566;2023-07-13T10:34:51;22.05;54.98
63202;DHT22;49296;48.188;11.566;2023-07-13T10:37:23;22.01;55.72
63202;DHT22;49296;48.188;11.566;2023-07-13T10:39:53;22.01;55.83
63202;DHT22;49296;48.188;11.566;2023-07-13T10:42:27;22.12;55.55
63202;DHT22;49296;48.188;11.566;2023-07-13T10:44:54;21.84;56.19
63202;DHT22;49296;48.188;11.566;2023-07-13T10:47:21;21.87;55.38
63202;DHT22;49296;48.188;11.566;2023-07-13T10:49:54;21.78;54.89
63202;DHT22;49296;48.188;11.566;2023-07-13T10:52:45;21.95;54.89
63202;DHT22;49296;48.188;11.566;2023-07-13T10:55:35;21.85;55.15
63202;DHT22;49296;48.188;11.566;2023-07-13T10:58:12;22.16;55.38
63202;DHT22;49296;48.188;11.566;2023-07-13T11:00:46;22.12;54.50
63202;DHT22;49296;48.188;11.566;2023-07-13T11:03:15;21.95;53.18
63202;DHT22;49296;48.188;11.566;2023-07-13T11:05:43;22.04;54.12
63202;DHT22;49296;48.188;11.566;2023-07-13T11:08:19;21.79;54.96
63202;DHT22;49296;48.188;11.566;2023-07-13T11:10:50;21.71;55.02
63202;DHT22;49296;48.188;11.566;2023-07-13T11:13:57;21.87;55.25
63202;DHT22;49296;48.188;11.566;2023-07-13T11:16:45;22.16;55.05
63202;DHT22;49296;48.188;11.566;2023-07-13T11:22:42;22.08;54.16
63202;DHT22;49296;48.188;11.566;2023-07-13T11:25:27;22.19;53.90
63202;DHT22;49296;48.188;11.566;2023-07-13T11:28:06;22.43;54.37
63202;DHT22;49296;48.188;11.566;2023-07-13T11:30:39;22.75;54.60
63202;DHT22;49296;48.188;11.566;2023-07-13T11:33:14;22.78;53.49
63202;DHT22;49296;48.188;11.566;2023-07-13T11:35:47;22.81;53.82
63202;DHT22;49296;48.188;11.566;2023-07-13T11:38:17;22.57;53.78
63202;DHT22;49296;48.188;11.566;2023-07-13T11:40:48;22.50;54.16
63202;DHT22;49296;48.188;11.566;2023-07-13T11:43:15;22.68;53.11
63202;DHT22;49296;48.188;11.566;2023-07-13T11:45:42;22.50;52.74
63202;DHT22;49296;48.188;11.566;2023-07-13T11:48:23;22.67;53.01
63202;DHT22;49296;48.188;11.566;2023-07-13T11:50:53;22.75;53.44
63202;DHT22;49296;48.188;11.566;2023-07-13T11:53:20;22.79;52.91
63202;DHT22;49296;48.188;11.566;2023-07-13T11:55:48;22.95;51.90
63202;DHT22;49296;48.188;11.566;2023-07-13T11:58:19;23.03;52.27
63202;DHT22;49296;48.188;11.566;2023-07-13T12:00:49;23.03;51.71
63202;DHT22;49296;48.188;11.566;2023-07-13T12:03:19;23.08;51.71
63202;DHT22;49296;48.188;11.566;2023-07-13T12:05:57;23.30;51.32
63202;DHT22;49296;48.188;11.566;2023-07-13T12:08:25;23.23;51.62
63202;DHT22;49296;48.188;11.566;2023-07-13T12:11:06;23.39;51.70
63202;DHT22;49296;48.188;11.566;2023-07-13T12:13:38;23.10;51.98
63202;DHT22;49296;48.188;11.566;2023-07-13T12:16:12;23.20;51.34
63202;DHT22;49296;48.188;11.566;2023-07-13T12:18:42;23.23;52.04
63202;DHT22;49296;48.188;11.566;2023-07-13T12:21:13;23.34;51.44
63202;DHT22;49296;48.188;11.566;2023-07-13T12:23:43;23.19;52.96
63202;DHT22;49296;48.188;11.566;2023-07-13T12:26:12;23.23;52.58
63202;DHT22;49296;48.188;11.566;2023-07-13T12:28:45;23.29;51.85
63202;DHT22;49296;48.188;11.566;2023-07-13T12:31:24;23.71;51.18
63202;DHT22;49296;48.188;11.566;2023-07-13T12:33:56;23.31;51.69
63202;DHT22;49296;48.188;11.566;2023-07-13T12:36:23;23.42;52.39
63202;DHT22;49296;48.188;11.566;2023-07-13T12:38:50;23.62;51.80
63202;DHT22;49296;48.188;11.566;2023-07-13T12:41:18;23.51;51.61
63202;DHT22;49296;48.188;11.566;2023-07-13T12:43:46;23.36;51.59
63202;DHT22;49296;48.188;11.566;2023-07-13T12:46:18;23.18;51.26
63202;DHT22;49296;48.188;11.566;2023-07-13T12:48:49;23.26;51.06
63202;DHT22;49296;48.188;11.566;2023-07-13T12:51:16;23.34;48.48
63202;DHT22;49296;48.188;11.566;2023-07-13T12:53:48;23.15;48.34
63202;DHT22;49296;48.188;11.566;2023-07-13T12:56:21;23.34;49.01
63202;DHT22;49296;48.188;11.566;2023-07-13T12:58:49;23.60;48.49
63202;DHT22;49296;48.188;11.566;2023-07-13T13:01:21;23.54;48.38
63202;DHT22;49296;48.188;11.566;2023-07-13T13:03:49;23.79;47.96
63202;DHT22;49296;48.188;11.566;2023-07-13T13:06:23;24.01;47.49
63202;DHT22;49296;48.188;11.566;2023-07-13T13:08:52;24.24;46.80
63202;DHT22;49296;48.188;11.566;2023-07-13T13:11:21;24.69;45.91
63202;DHT22;49296;48.188;11.566;2023-07-13T13:13:49;25.27;44.78
63202;DHT22;49296;48.188;11.566;2023-07-13T13:16:20;25.53;44.28
63202;DHT22;49296;48.188;11.566;2023-07-13T13:18:47;24.95;44.39
63202;DHT22;49296;48.188;11.566;2023-07-13T13:21:15;24.69;44.49
63202;DHT22;49296;48.188;11.566;2023-07-13T13:23:42;24.82;46.83
63202;DHT22;49296;48.188;11.566;2023-07-13T13:26:10;25.01;45.24
63202;DHT22;49296;48.188;11.566;2023-07-13T13:28:38;25.31;45.51
63202;DHT22;49296;48.188;11.566;2023-07-13T13:31:05;24.99;44.97
63202;DHT22;49296;48.188;11.566;2023-07-13T13:33:32;24.68;45.52
63202;DHT22;49296;48.188;11.566;2023-07-13T13:35:59;24.67;45.47
63202;DHT22;49296;48.188;11.566;2023-07-13T13:38:27;24.47;46.20
63202;DHT22;49296;48.188;11.566;2023-07-13T13:40:53;24.44;46.42
63202;DHT22;49296;48.188;11.566;2023-07-13T13:43:23;24.40;46.47
63202;DHT22;49296;48.188;11.566;2023-07-13T13:45:55;24.24;46.45
63202;DHT22;49296;48.188;11.566;2023-07-13T13:48:28;24.15;46.83
63202;DHT22;49296;48.188;11.566;2023-07-13T13:50:56;23.82;47.38
63202;DHT22;49296;48.188;11.566;2023-07-13T13:53:23;23.88;47.30
63202;DHT22;49296;48.188;11.566;2023-07-13T13:55:50;23.98;47.69
63202;DHT22;49296;48.188;11.566;2023-07-13T13:58:18;24.10;47.92
63202;DHT22;49296;48.188;11.566;2023-07-13T14:00:45;24.13;46.85
63202;DHT22;49296;48.188;11.566;2023-07-13T14:03:15;24.22;46.05
63202;DHT22;49296;48.188;11.566;2023-07-13T14:05:43;24.34;46.80
63202;DHT22;49296;48.188;11.566;2023-07-13T14:08:13;24.30;47.64
63202;DHT22;49296;48.188;11.566;2023-07-13T14:10:40;24.67;46.91
63202;DHT22;49296;48.188;11.566;2023-07-13T14:13:15;24.41;46.04
63202;DHT22;49296;48.188;11.566;2023-07-13T14:15:44;24.79;45.44
63202;DHT22;49296;48.188;11.566;2023-07-13T14:18:11;25.84;44.28
63202;DHT22;49296;48.188;11.566;2023-07-13T14:20:44;25.98;43.45
63202;DHT22;49296;48.188;11.566;2023-07-13T14:23:12;25.71;43.55
63202;DHT22;49296;48.188;11.566;2023-07-13T14:25:39;25.64;44.65
63202;DHT22;49296;48.188;11.566;2023-07-13T14:28:17;25.91;43.86
63202;DHT22;49296;48.188;11.566;2023-07-13T14:30:45;26.44;42.86
63202;DHT22;49296;48.188;11.566;2023-07-13T14:33:13;26.12;43.15
63202;DHT22;49296;48.188;11.566;2023-07-13T14:35:40;26.91;42.85
63202;DHT22;49296;48.188;11.566;2023-07-13T14:38:10;26.61;42.69
63202;DHT22;49296;48.188;11.566;2023-07-13T14:40:37;26.85;42.32
63202;DHT22;49296;48.188;11.566;2023-07-13T14:43:07;27.33;42.04
63202;DHT22;49296;48.188;11.566;2023-07-13T14:45:41;27.96;41.20
63202;DHT22;49296;48.188;11.566;2023-07-13T14:48:15;28.28;39.93
63202;DHT22;49296;48.188;11.566;2023-07-13T14:50:42;28.20;40.06
63202;DHT22;49296;48.188;11.566;2023-07-13T14:53:11;28.27;40.28
63202;DHT22;49296;48.188;11.566;2023-07-13T14:55:38;28.10;39.87
63202;DHT22;49296;48.188;11.566;2023-07-13T14:58:06;28.21;39.66
63202;DHT22;49296;48.188;11.566;2023-07-13T15:00:34;27.98;40.16
63202;DHT22;49296;48.188;11.566;2023-07-13T15:03:01;27.51;40.29
63202;DHT22;49296;48.188;11.566;2023-07-13T15:05:30;27.82;40.58
63202;DHT22;49296;48.188;11.566;2023-07-13T15:07:59;28.19;40.66
63202;DHT22;49296;48.188;11.566;2023-07-13T15:10:29;28.32;40.21
63202;DHT22;49296;48.188;11.566;2023-07-13T15:13:00;28.03;40.22
63202;DHT22;49296;48.188;11.566;2023-07-13T15:15:30;28.51;39.81
63202;DHT22;49296;48.188;11.566;2023-07-13T15:17:57;28.50;39.31
63202;DHT22;49296;48.188;11.566;2023-07-13T15:20:27;28.74;39.14
63202;DHT22;49296;48.188;11.566;2023-07-13T15:23:08;29.10;39.19
63202;DHT22;49296;48.188;11.566;2023-07-13T15:25:36;29.07;38.44
63202;DHT22;49296;48.188;11.566;2023-07-13T15:28:03;28.92;39.94